Ancramdale, New York
Current Conditions -  °F | °C
As of 6:53 AM on Sunday 23 Nov 2014 (Local Time) from KPOU Reporting Station
Overcast Overcast  
Wind Chill:   Ceiling: 6000
Heat Index:   Visibility: 10mi
Dew Point: -6°   Wind: 5mph
Humidity: 39%   Direction: 230°SW
Pressure: 30.16"   Gusts: NA
Location:  42.02°N, 73.59°W
Report Text: KPOU 231153Z 23004KT 10SM BKN060 OVC080 07/M06 A3016 RMK AO2 SLP210 T00721061 10072 20061 53005
Loading
Personal Weather Stations






























Interactive Weather Map New forecast layout! Learn more

10-Day Weather Forecast

Advertisements
Track Severe Weather on mobile